»·PEaware :: N123AG KSBP-L52

N123AG :: KSBP-L52

FLIGHT INFORMATION

Flight Status: Arrived
Operator: Privately registered:
United States
More flights under this callsign
Pilot: Guilherme G. (17065)
Aircraft: CESSNA 172 SKYHAWK
(C172)
More flights by this aircraft type
Origin: KSBP San Luis Co Regl
United States
Destination: L52 Oceano Co
United States
More flights between these airports :: More routes between these airports
Route: +
File this flight plan on PilotEdge
Remarks:
Altitude:
(Current/Filed)
0ft
Speed:
(Current/Filed)
0kts
Departed: 27-Oct-17 11:32 AM
Arrived: 27-Oct-17 12:09 PM
Distance/Time
Traveled:
0nm/0:37
Distance/Time
To Go:
Arrived

Flight Plot

Page will automatically refresh every two minutes.


Map Options




Map Legend


Flown Route
Filed Route
Departure Airport
Arrival Airport
Navaid (VOR, NDB)
Fix

Horizontal Profiles

Position Reports

Time Latitude Longitude Heading Altitude Ground
Speed
27-Oct-17 11:30 35.103559 -120.624274 213 18ft 0kts
27-Oct-17 11:31 35.103559 -120.624274 213 18ft 0kts
27-Oct-17 11:32 35.103559 -120.624274 213 18ft 0kts
27-Oct-17 11:33 35.103559 -120.624274 213 18ft 0kts
27-Oct-17 11:34 35.103559 -120.624274 213 18ft 0kts
27-Oct-17 11:35 35.103558 -120.624274 213 18ft 0kts
27-Oct-17 11:36 35.102590 -120.625215 119 18ft 19kts
27-Oct-17 11:37 35.102498 -120.624117 303 100ft 77kts
27-Oct-17 11:38 35.121337 -120.628173 7 1235ft 80kts
27-Oct-17 11:39 35.147957 -120.630930 355 1997ft 101kts
27-Oct-17 11:40 35.180084 -120.625230 15 2206ft 122kts
27-Oct-17 11:41 35.217612 -120.626484 352 1157ft 114kts
27-Oct-17 11:42 35.235400 -120.637614 307 215ft 54kts
27-Oct-17 11:43 35.237522 -120.639897 6 215ft 0kts
27-Oct-17 11:44 35.237528 -120.639896 6 215ft 0kts
27-Oct-17 11:45 35.237538 -120.639895 6 215ft 0kts
27-Oct-17 11:46 35.237550 -120.639893 6 215ft 0kts
27-Oct-17 11:47 35.238180 -120.639715 206 215ft 0kts
27-Oct-17 11:48 35.238175 -120.639718 206 215ft 0kts
27-Oct-17 11:49 35.238175 -120.639718 206 215ft 0kts
27-Oct-17 11:50 35.238175 -120.639718 206 215ft 0kts
27-Oct-17 11:51 35.238175 -120.639718 206 215ft 0kts
27-Oct-17 11:52 35.238175 -120.639718 206 215ft 0kts
27-Oct-17 11:53 35.238175 -120.639718 206 215ft 0kts
27-Oct-17 11:54 35.238125 -120.639743 196 215ft 5kts
27-Oct-17 11:55 35.235508 -120.635869 124 215ft 22kts
27-Oct-17 11:56 35.233227 -120.632438 202 215ft 0kts
27-Oct-17 11:57 35.233226 -120.632438 201 215ft 0kts
27-Oct-17 11:58 35.233224 -120.632439 200 215ft 0kts
27-Oct-17 11:59 35.233224 -120.632439 200 215ft 0kts
27-Oct-17 12:00 35.233224 -120.632439 200 215ft 0kts
27-Oct-17 12:01 35.233224 -120.632439 200 215ft 0kts
27-Oct-17 12:02 35.232864 -120.632813 252 215ft 14kts
27-Oct-17 12:03 35.243604 -120.655678 272 791ft 95kts
27-Oct-17 12:04 35.229642 -120.682633 210 1500ft 113kts
27-Oct-17 12:05 35.197466 -120.693836 187 1692ft 125kts
27-Oct-17 12:06 35.163022 -120.689902 164 1891ft 125kts
27-Oct-17 12:07 35.129855 -120.677215 162 2089ft 125kts
27-Oct-17 12:08 35.099944 -120.662042 151 1874ft 91kts
27-Oct-17 12:09 35.081150 -120.650000 150 1477ft 73kts
27-Oct-17 12:10 35.066032 -120.643235 286 1046ft 80kts
27-Oct-17 12:11 35.070854 -120.637466 121 1147ft 97kts
27-Oct-17 12:12 35.073127 -120.608832 49 1531ft 88kts
27-Oct-17 12:13 35.093700 -120.607048 299 675ft 116kts
27-Oct-17 12:14 35.102738 -120.623908 64 18ft 3kts
27-Oct-17 12:15 35.098399 -120.616774 126 119ft 78kts
27-Oct-17 12:16 35.109243 -120.598101 349 673ft 118kts
27-Oct-17 12:17 35.136920 -120.611711 19 1292ft 108kts
27-Oct-17 12:18 35.165334 -120.595911 15 1799ft 118kts
27-Oct-17 12:19 35.195014 -120.580010 351 2138ft 126kts
27-Oct-17 12:20 35.217640 -120.606465 303 1029ft 101kts
27-Oct-17 12:21 35.231957 -120.631657 305 275ft 77kts
27-Oct-17 12:22 35.237804 -120.640463 80 215ft 0kts

Navigation Log

Ident Type
Flight plan parsing failed, navigation log unavailable